createdAt,value
2018-09-01T00:00:52.240Z,0.00
2018-09-01T00:01:52.791Z,0.00
2018-09-01T00:02:52.157Z,0.00
2018-09-01T00:03:52.084Z,0.00
2018-09-01T00:04:52.036Z,0.00
2018-09-01T00:05:51.993Z,0.00
2018-09-01T00:06:51.938Z,0.00
2018-09-01T00:07:51.915Z,0.00
2018-09-01T00:08:51.839Z,0.00
2018-09-01T00:09:51.796Z,0.00
2018-09-01T00:10:51.740Z,0.00
2018-09-01T00:11:51.719Z,0.00
2018-09-01T00:12:51.644Z,0.00
2018-09-01T00:13:52.272Z,0.00
2018-09-01T00:14:51.549Z,0.00
2018-09-01T00:15:51.499Z,0.00
2018-09-01T00:16:51.472Z,0.00
2018-09-01T00:17:51.399Z,0.00
2018-09-01T00:18:51.351Z,0.00
2018-09-01T00:19:51.306Z,0.00
2018-09-01T00:20:51.253Z,0.00
2018-09-01T00:21:51.405Z,0.00
2018-09-01T00:22:51.180Z,0.00
2018-09-01T00:23:51.109Z,0.00
2018-09-01T00:24:51.065Z,0.00
2018-09-01T00:25:51.009Z,0.00
2018-09-01T00:26:50.965Z,0.00
2018-09-01T00:27:50.932Z,0.00
2018-09-01T00:28:50.869Z,0.00
2018-09-01T00:29:50.812Z,0.00
2018-09-01T00:30:50.791Z,0.00
2018-09-01T00:31:50.721Z,0.00
2018-09-01T00:32:50.667Z,0.00
2018-09-01T00:33:50.614Z,0.00
2018-09-01T00:34:50.601Z,0.00
2018-09-01T00:35:50.517Z,0.00
2018-09-01T00:36:50.463Z,0.00
2018-09-01T00:37:50.417Z,0.00
2018-09-01T00:38:50.405Z,0.00
2018-09-01T00:39:50.320Z,0.00
2018-09-01T00:40:50.271Z,0.00
2018-09-01T00:41:50.222Z,0.00
2018-09-01T00:42:50.173Z,0.00
2018-09-01T00:43:50.171Z,0.00
2018-09-01T00:44:50.074Z,0.00
2018-09-01T00:45:50.023Z,0.00
2018-09-01T00:46:49.974Z,0.00
2018-09-01T00:47:49.925Z,0.00
2018-09-01T00:48:49.908Z,0.00
2018-09-01T00:49:49.826Z,0.00
2018-09-01T00:50:49.775Z,0.00
2018-09-01T00:51:49.764Z,0.00
2018-09-01T00:52:49.677Z,0.00
2018-09-01T00:53:49.669Z,0.00
2018-09-01T00:54:49.580Z,0.00
2018-09-01T00:55:49.563Z,0.00
2018-09-01T00:56:49.479Z,0.00
2018-09-01T00:57:49.430Z,0.00
2018-09-01T00:58:49.403Z,0.00
2018-09-01T00:59:49.332Z,0.00
2018-09-01T01:00:49.284Z,0.00
2018-09-01T01:01:49.264Z,0.00
2018-09-01T01:02:49.188Z,0.00
2018-09-01T01:03:49.134Z,0.00
2018-09-01T01:04:49.113Z,0.00
2018-09-01T01:05:49.034Z,0.00
2018-09-01T01:06:48.989Z,0.00
2018-09-01T01:07:48.935Z,0.00
2018-09-01T01:08:48.884Z,0.00
2018-09-01T01:09:49.009Z,0.00
2018-09-01T01:10:48.789Z,0.00
2018-09-01T01:11:48.741Z,0.00
2018-09-01T01:12:48.686Z,0.00
2018-09-01T01:13:48.789Z,0.00
2018-09-01T01:14:48.611Z,0.00
2018-09-01T01:15:48.569Z,0.00
2018-09-01T01:16:48.706Z,0.00
2018-09-01T01:17:48.621Z,0.00
2018-09-01T01:18:48.385Z,0.00
2018-09-01T01:19:48.336Z,0.00
2018-09-01T01:20:48.287Z,0.00
2018-09-01T01:21:48.274Z,0.00
2018-09-01T01:22:48.187Z,0.00
2018-09-01T01:23:48.135Z,0.00
2018-09-01T01:24:48.089Z,0.00
2018-09-01T01:25:48.035Z,0.00
2018-09-01T01:26:48.237Z,0.00
2018-09-01T01:27:47.964Z,0.00
2018-09-01T01:28:47.884Z,0.00
2018-09-01T01:29:47.837Z,0.00
2018-09-01T01:30:47.786Z,0.00
2018-09-01T01:31:47.737Z,0.00
2018-09-01T01:32:47.706Z,0.00
2018-09-01T01:33:47.632Z,0.00
2018-09-01T01:34:47.591Z,0.00
2018-09-01T01:35:47.534Z,0.00
2018-09-01T01:36:47.485Z,0.00
2018-09-01T01:37:47.464Z,0.00
2018-09-01T01:38:47.382Z,0.00
2018-09-01T01:39:47.332Z,0.00
2018-09-01T01:40:47.554Z,0.00
2018-09-01T01:41:47.232Z,0.00
2018-09-01T01:42:47.222Z,0.00
2018-09-01T01:43:47.133Z,0.00
2018-09-01T01:44:47.080Z,0.00
2018-09-01T01:45:47.032Z,0.00
2018-09-01T01:46:46.980Z,0.00
2018-09-01T01:47:46.973Z,0.00
2018-09-01T01:48:46.878Z,0.00
2018-09-01T01:49:46.831Z,0.00
2018-09-01T01:50:46.782Z,0.00
2018-09-01T01:51:46.730Z,0.00
2018-09-01T01:52:46.864Z,0.00
2018-09-01T01:53:46.628Z,0.00
2018-09-01T01:54:46.576Z,0.00
2018-09-01T01:55:46.527Z,0.00
2018-09-01T01:56:46.507Z,0.00
2018-09-01T01:57:46.434Z,0.00
2018-09-01T01:58:46.662Z,0.00
2018-09-01T01:59:46.328Z,0.00
2018-09-01T02:00:46.276Z,0.00
2018-09-01T02:01:46.225Z,0.00
2018-09-01T02:02:46.181Z,0.00
2018-09-01T02:03:49.356Z,0.00
2018-09-01T02:04:46.072Z,0.00
2018-09-01T02:05:46.020Z,0.00
2018-09-01T02:06:45.972Z,0.00
2018-09-01T02:07:45.920Z,0.00
2018-09-01T02:08:45.900Z,0.00
2018-09-01T02:09:45.861Z,0.00
2018-09-01T02:10:45.764Z,0.00
2018-09-01T02:11:45.717Z,0.00
2018-09-01T02:12:45.666Z,0.00
2018-09-01T02:13:45.621Z,0.00
2018-09-01T02:14:45.613Z,0.00
2018-09-01T02:15:45.512Z,0.00
2018-09-01T02:16:45.464Z,0.00
2018-09-01T02:17:45.547Z,0.00
2018-09-01T02:18:45.361Z,0.00
2018-09-01T02:19:45.356Z,0.00
2018-09-01T02:20:45.260Z,0.00
2018-09-01T02:21:45.210Z,0.00
2018-09-01T02:22:45.158Z,0.00
2018-09-01T02:23:45.107Z,0.00
2018-09-01T02:24:45.089Z,0.00
2018-09-01T02:25:45.038Z,0.00
2018-09-01T02:26:44.962Z,0.00
2018-09-01T02:27:44.907Z,0.00
2018-09-01T02:28:44.852Z,0.00
2018-09-01T02:29:44.803Z,0.00
2018-09-01T02:30:44.790Z,0.00
2018-09-01T02:31:44.702Z,0.00
2018-09-01T02:32:44.648Z,0.00
2018-09-01T02:33:44.597Z,0.00
2018-09-01T02:34:44.549Z,0.00
2018-09-01T02:35:44.528Z,0.00
2018-09-01T02:36:44.444Z,0.00
2018-09-01T02:37:44.396Z,0.00
2018-09-01T02:38:44.344Z,0.00
2018-09-01T02:39:44.295Z,0.00
2018-09-01T02:40:44.272Z,0.00
2018-09-01T02:41:44.189Z,0.00
2018-09-01T02:42:44.137Z,0.00
2018-09-01T02:43:44.124Z,0.00
2018-09-01T02:44:44.038Z,0.00
2018-09-01T02:45:43.987Z,0.00
2018-09-01T02:46:43.940Z,0.00
2018-09-01T02:47:43.887Z,0.00
2018-09-01T02:48:43.866Z,0.00
2018-09-01T02:49:43.780Z,0.00
2018-09-01T02:50:43.734Z,0.00
2018-09-01T02:51:43.679Z,0.00
2018-09-01T02:52:43.664Z,0.00
2018-09-01T02:53:43.576Z,0.00
2018-09-01T02:54:43.683Z,0.00
2018-09-01T02:55:43.516Z,0.00
2018-09-01T02:56:43.424Z,0.00
2018-09-01T02:57:43.375Z,0.00
2018-09-01T02:58:43.505Z,0.00
2018-09-01T02:59:43.274Z,0.00
2018-09-01T03:00:43.251Z,0.00
2018-09-01T03:01:43.169Z,0.00
2018-09-01T03:02:43.118Z,0.00
2018-09-01T03:03:43.068Z,0.00
2018-09-01T03:04:43.045Z,0.00
2018-09-01T03:05:42.964Z,0.00
2018-09-01T03:06:42.952Z,0.00
2018-09-01T03:07:42.862Z,0.00
2018-09-01T03:08:42.813Z,0.00
2018-09-01T03:09:43.003Z,0.00
2018-09-01T03:10:42.708Z,0.00
2018-09-01T03:11:42.688Z,0.00
2018-09-01T03:12:42.602Z,0.00
2018-09-01T03:13:42.552Z,0.00
2018-09-01T03:14:42.534Z,0.00
2018-09-01T03:15:42.451Z,0.00
2018-09-01T03:16:42.402Z,0.00
2018-09-01T03:17:42.497Z,0.00
2018-09-01T03:18:42.339Z,0.00
2018-09-01T03:19:42.336Z,0.00
2018-09-01T03:20:42.250Z,0.00
2018-09-01T03:21:42.468Z,0.00
2018-09-01T03:22:42.122Z,0.00
2018-09-01T03:23:42.312Z,0.00
2018-09-01T03:24:42.040Z,0.00
2018-09-01T03:25:41.941Z,0.00
2018-09-01T03:26:41.885Z,0.00
2018-09-01T03:27:41.865Z,0.00
2018-09-01T03:28:41.783Z,0.00
2018-09-01T03:29:41.730Z,0.00
2018-09-01T03:30:41.709Z,0.00
2018-09-01T03:31:41.629Z,0.00
2018-09-01T03:32:41.578Z,0.00
2018-09-01T03:33:41.530Z,0.00
2018-09-01T03:34:41.473Z,0.00
2018-09-01T03:35:41.461Z,0.00
2018-09-01T03:36:41.368Z,0.00
2018-09-01T03:37:41.321Z,0.00
2018-09-01T03:38:41.267Z,0.00
2018-09-01T03:39:41.218Z,0.00
2018-09-01T03:40:41.197Z,0.00
2018-09-01T03:41:41.112Z,0.00
2018-09-01T03:42:41.060Z,0.00
2018-09-01T03:43:41.010Z,0.00
2018-09-01T03:44:40.961Z,0.00
2018-09-01T03:45:40.936Z,0.00
2018-09-01T03:46:40.860Z,0.00
2018-09-01T03:47:40.804Z,0.00
2018-09-01T03:48:40.752Z,0.00
2018-09-01T03:49:40.701Z,0.00
2018-09-01T03:50:40.679Z,0.00
2018-09-01T03:51:40.627Z,0.00
2018-09-01T03:52:40.543Z,0.00
2018-09-01T03:53:40.492Z,0.00
2018-09-01T03:54:40.441Z,0.00
2018-09-01T03:55:40.388Z,0.00
2018-09-01T03:56:40.369Z,0.00
2018-09-01T03:57:40.316Z,0.00
2018-09-01T03:58:40.235Z,0.00
2018-09-01T03:59:40.230Z,0.00
2018-09-01T04:00:40.133Z,0.00
2018-09-01T04:01:40.078Z,0.00
2018-09-01T04:02:40.063Z,0.00
2018-09-01T04:03:40.017Z,0.00
2018-09-01T04:04:39.924Z,0.00
2018-09-01T04:05:39.875Z,0.00
2018-09-01T04:06:39.822Z,0.00
2018-09-01T04:07:39.769Z,0.00
2018-09-01T04:08:39.751Z,0.00
2018-09-01T04:09:39.665Z,0.00
2018-09-01T04:10:39.647Z,0.00
2018-09-01T04:11:39.562Z,0.00
2018-09-01T04:12:39.509Z,0.00
2018-09-01T04:13:39.458Z,0.00
2018-09-01T04:14:39.446Z,0.00
2018-09-01T04:15:39.355Z,0.00
2018-09-01T04:16:39.302Z,0.00
2018-09-01T04:17:39.251Z,0.00
2018-09-01T04:18:39.203Z,0.00
2018-09-01T04:19:39.185Z,0.00
2018-09-01T04:20:39.097Z,0.00
2018-09-01T04:21:39.047Z,0.00
2018-09-01T04:22:38.991Z,0.00
2018-09-01T04:23:38.938Z,0.00
2018-09-01T04:24:38.923Z,0.00
2018-09-01T04:25:38.870Z,0.00
2018-09-01T04:26:38.787Z,0.00
2018-09-01T04:27:38.733Z,0.00
2018-09-01T04:28:38.684Z,0.00
2018-09-01T04:29:38.628Z,0.00
2018-09-01T04:30:38.625Z,0.00
2018-09-01T04:31:38.525Z,0.00
2018-09-01T04:32:38.472Z,0.00
2018-09-01T04:33:38.421Z,0.00
2018-09-01T04:34:38.368Z,0.00
2018-09-01T04:35:38.349Z,0.00
2018-09-01T04:36:38.264Z,0.00
2018-09-01T04:37:38.214Z,0.00
2018-09-01T04:38:38.162Z,0.00
2018-09-01T04:39:38.108Z,0.00
2018-09-01T04:40:38.089Z,0.00
2018-09-01T04:41:38.006Z,0.00
2018-09-01T04:42:37.986Z,5.63
2018-09-01T04:43:37.906Z,5.63
2018-09-01T04:44:37.850Z,5.63
2018-09-01T04:45:37.801Z,5.63
2018-09-01T04:46:37.743Z,5.63
2018-09-01T04:47:37.727Z,5.63
2018-09-01T04:48:37.640Z,5.63
2018-09-01T04:49:37.626Z,5.63
2018-09-01T04:50:37.567Z,11.25
2018-09-01T04:51:37.485Z,11.25
2018-09-01T04:52:37.471Z,11.25
2018-09-01T04:53:37.384Z,11.25
2018-09-01T04:54:37.332Z,11.25
2018-09-01T04:55:37.275Z,11.25
2018-09-01T04:56:37.222Z,16.88
2018-09-01T04:57:37.219Z,16.88
2018-09-01T04:58:37.119Z,16.88
2018-09-01T04:59:37.070Z,16.88
2018-09-01T05:00:37.018Z,16.88
2018-09-01T05:01:36.964Z,16.88
2018-09-01T05:02:36.943Z,16.88
2018-09-01T05:03:36.860Z,22.50
2018-09-01T05:04:36.807Z,22.50
2018-09-01T05:05:36.754Z,22.50
2018-09-01T05:06:36.735Z,22.50
2018-09-01T05:07:36.651Z,22.50
2018-09-01T05:08:36.605Z,22.50
2018-09-01T05:09:36.549Z,22.50
2018-09-01T05:10:36.493Z,22.50
2018-09-01T05:11:36.481Z,28.13
2018-09-01T05:12:36.390Z,28.13
2018-09-01T05:13:36.337Z,28.13
2018-09-01T05:14:36.292Z,28.13
2018-09-01T05:15:36.237Z,28.13
2018-09-01T05:16:36.215Z,28.13
2018-09-01T05:17:36.131Z,28.13
2018-09-01T05:18:36.078Z,28.13
2018-09-01T05:19:36.057Z,28.13
2018-09-01T05:20:35.971Z,33.75
2018-09-01T05:21:35.923Z,33.75
2018-09-01T05:22:35.902Z,33.75
2018-09-01T05:23:35.816Z,39.38
2018-09-01T05:24:35.765Z,39.38
2018-09-01T05:25:35.722Z,39.38
2018-09-01T05:26:35.662Z,39.38
2018-09-01T05:27:35.643Z,39.38
2018-09-01T05:28:35.563Z,39.38
2018-09-01T05:29:35.505Z,45.00
2018-09-01T05:30:35.455Z,45.00
2018-09-01T05:31:35.435Z,45.00
2018-09-01T05:32:35.377Z,45.00
2018-09-01T05:33:35.295Z,50.63
2018-09-01T05:34:35.246Z,50.63
2018-09-01T05:35:35.192Z,50.63
2018-09-01T05:36:35.181Z,50.63
2018-09-01T05:37:35.129Z,50.63
2018-09-01T05:38:35.037Z,50.63
2018-09-01T05:39:34.988Z,50.63
2018-09-01T05:40:34.932Z,50.63
2018-09-01T05:41:34.879Z,50.63
2018-09-01T05:42:34.865Z,56.25
2018-09-01T05:43:34.782Z,56.25
2018-09-01T05:44:34.722Z,56.25
2018-09-01T05:45:34.902Z,61.88
2018-09-01T05:46:34.618Z,61.88
2018-09-01T05:47:34.600Z,67.50
2018-09-01T05:48:34.547Z,67.50
2018-09-01T05:49:34.467Z,67.50
2018-09-01T05:50:34.413Z,67.50
2018-09-01T05:51:34.360Z,73.13
2018-09-01T05:52:34.305Z,73.13
2018-09-01T05:53:34.287Z,73.13
2018-09-01T05:54:34.203Z,78.75
2018-09-01T05:55:34.151Z,78.75
2018-09-01T05:56:34.100Z,84.38
2018-09-01T05:57:34.046Z,84.38
2018-09-01T05:58:34.027Z,84.38
2018-09-01T05:59:33.947Z,90.00
2018-09-01T06:00:33.905Z,90.00
2018-09-01T06:01:33.840Z,90.00
2018-09-01T06:02:33.788Z,90.00
2018-09-01T06:03:33.771Z,90.00
2018-09-01T06:04:33.684Z,95.63
2018-09-01T06:05:33.665Z,101.25
2018-09-01T06:06:33.583Z,101.25
2018-09-01T06:07:33.531Z,106.88
2018-09-01T06:08:33.476Z,112.50
2018-09-01T06:09:33.429Z,112.50
2018-09-01T06:10:33.406Z,112.50
2018-09-01T06:11:33.323Z,112.50
2018-09-01T06:12:33.269Z,118.13
2018-09-01T06:13:33.252Z,118.13
2018-09-01T06:14:33.171Z,123.75
2018-09-01T06:15:33.116Z,118.13
2018-09-01T06:16:33.063Z,118.13
2018-09-01T06:17:33.150Z,118.13
2018-09-01T06:18:32.961Z,118.13
2018-09-01T06:19:32.908Z,118.13
2018-09-01T06:20:32.863Z,118.13
2018-09-01T06:21:32.808Z,123.75
2018-09-01T06:22:32.795Z,123.75
2018-09-01T06:23:32.706Z,129.38
2018-09-01T06:24:32.652Z,129.38
2018-09-01T06:25:32.599Z,135.00
2018-09-01T06:26:32.551Z,140.63
2018-09-01T06:27:32.540Z,146.25
2018-09-01T06:28:32.447Z,151.88
2018-09-01T06:29:32.396Z,157.50
2018-09-01T06:30:32.344Z,163.13
2018-09-01T06:31:32.293Z,168.75
2018-09-01T06:32:32.284Z,163.13
2018-09-01T06:33:32.188Z,157.50
2018-09-01T06:34:32.138Z,151.88
2018-09-01T06:35:32.089Z,151.88
2018-09-01T06:36:32.037Z,151.88
2018-09-01T06:37:32.140Z,157.50
2018-09-01T06:38:31.934Z,157.50
2018-09-01T06:39:31.883Z,151.88
2018-09-01T06:40:31.831Z,146.25
2018-09-01T06:41:31.778Z,151.88
2018-09-01T06:42:31.771Z,146.25
2018-09-01T06:43:31.678Z,146.25
2018-09-01T06:44:31.634Z,146.25
2018-09-01T06:45:31.577Z,146.25
2018-09-01T06:46:31.533Z,140.63
2018-09-01T06:47:31.526Z,140.63
2018-09-01T06:48:31.428Z,140.63
2018-09-01T06:49:31.374Z,146.25
2018-09-01T06:50:31.323Z,151.88
2018-09-01T06:51:31.317Z,151.88
2018-09-01T06:52:31.252Z,157.50
2018-09-01T06:53:31.169Z,163.13
2018-09-01T06:54:31.120Z,174.38
2018-09-01T06:55:31.100Z,180.00
2018-09-01T06:56:31.016Z,185.63
2018-09-01T06:57:30.968Z,191.25
2018-09-01T06:58:30.919Z,191.25
2018-09-01T06:59:30.864Z,191.25
2018-09-01T07:00:30.850Z,191.25
2018-09-01T07:01:30.796Z,191.25
2018-09-01T07:02:30.715Z,196.88
2018-09-01T07:03:30.662Z,196.88
2018-09-01T07:04:30.614Z,196.88
2018-09-01T07:05:30.565Z,196.88
2018-09-01T07:06:30.550Z,196.88
2018-09-01T07:07:30.461Z,202.50
2018-09-01T07:08:30.407Z,202.50
2018-09-01T07:09:30.364Z,202.50
2018-09-01T07:10:30.308Z,202.50
2018-09-01T07:11:30.301Z,208.13
2018-09-01T07:12:30.206Z,208.13
2018-09-01T07:13:30.155Z,208.13
2018-09-01T07:14:30.107Z,208.13
2018-09-01T07:15:30.059Z,208.13
2018-09-01T07:16:30.036Z,213.75
2018-09-01T07:17:29.954Z,213.75
2018-09-01T07:18:29.902Z,213.75
2018-09-01T07:19:29.854Z,213.75
2018-09-01T07:20:29.835Z,213.75
2018-09-01T07:21:29.754Z,213.75
2018-09-01T07:22:29.705Z,213.75
2018-09-01T07:23:29.653Z,219.38
2018-09-01T07:24:29.599Z,219.38
2018-09-01T07:25:29.584Z,219.38
2018-09-01T07:26:29.504Z,225.00
2018-09-01T07:27:29.491Z,219.38
2018-09-01T07:28:29.398Z,219.38
2018-09-01T07:29:29.352Z,225.00
2018-09-01T07:30:29.451Z,225.00
2018-09-01T07:31:29.640Z,225.00
2018-09-01T07:32:29.230Z,230.63
2018-09-01T07:33:29.151Z,230.63
2018-09-01T07:34:29.148Z,230.63
2018-09-01T07:35:29.048Z,230.63
2018-09-01T07:36:28.998Z,236.25
2018-09-01T07:37:28.949Z,241.88
2018-09-01T07:38:28.902Z,241.88
2018-09-01T07:39:28.902Z,241.88
2018-09-01T07:40:28.802Z,241.88
2018-09-01T07:41:28.749Z,247.50
2018-09-01T07:42:28.701Z,247.50
2018-09-01T07:43:28.652Z,247.50
2018-09-01T07:44:28.636Z,247.50
2018-09-01T07:45:28.561Z,253.13
2018-09-01T07:46:28.501Z,258.75
2018-09-01T07:47:28.485Z,258.75
2018-09-01T07:48:28.400Z,258.75
2018-09-01T07:49:28.351Z,258.75
2018-09-01T07:50:28.335Z,258.75
2018-09-01T07:51:28.255Z,258.75
2018-09-01T07:52:28.204Z,264.38
2018-09-01T07:53:28.188Z,264.38
2018-09-01T07:54:28.169Z,270.00
2018-09-01T07:55:28.056Z,264.38
2018-09-01T07:56:28.005Z,264.38
2018-09-01T07:57:27.955Z,264.38
2018-09-01T07:58:27.906Z,270.00
2018-09-01T07:59:27.888Z,270.00
2018-09-01T08:00:27.841Z,270.00
2018-09-01T08:01:27.769Z,281.25
2018-09-01T08:02:27.711Z,292.50
2018-09-01T08:03:27.662Z,303.75
2018-09-01T08:04:27.611Z,315.00
2018-09-01T08:05:27.595Z,320.63
2018-09-01T08:06:27.514Z,326.25
2018-09-01T08:07:27.569Z,331.88
2018-09-01T08:08:27.419Z,331.88
2018-09-01T08:09:27.371Z,337.50
2018-09-01T08:10:27.325Z,337.50
2018-09-01T08:11:27.276Z,348.75
2018-09-01T08:12:27.269Z,354.38
2018-09-01T08:13:27.179Z,360.00
2018-09-01T08:14:27.138Z,365.63
2018-09-01T08:15:27.089Z,371.25
2018-09-01T08:16:27.046Z,376.88
2018-09-01T08:17:27.041Z,376.88
2018-09-01T08:18:26.952Z,371.25
2018-09-01T08:19:26.907Z,376.88
2018-09-01T08:20:26.862Z,382.50
2018-09-01T08:21:26.817Z,382.50
2018-09-01T08:22:26.813Z,388.13
2018-09-01T08:23:26.733Z,388.13
2018-09-01T08:24:26.689Z,393.75
2018-09-01T08:25:26.641Z,399.38
2018-09-01T08:26:26.602Z,410.63
2018-09-01T08:27:26.599Z,410.63
2018-09-01T08:28:26.517Z,410.63
2018-09-01T08:29:26.474Z,416.25
2018-09-01T08:30:26.429Z,416.25
2018-09-01T08:31:26.393Z,416.25
2018-09-01T08:32:26.378Z,410.63
2018-09-01T08:33:26.362Z,416.25
2018-09-01T08:34:26.289Z,410.63
2018-09-01T08:35:26.254Z,410.63
2018-09-01T08:36:26.181Z,410.63
2018-09-01T08:37:26.139Z,399.38
2018-09-01T08:38:26.099Z,399.38
2018-09-01T08:39:26.063Z,405.00
2018-09-01T08:40:26.051Z,405.00
2018-09-01T08:41:25.977Z,399.38
2018-09-01T08:42:25.936Z,399.38
2018-09-01T08:43:25.896Z,405.00
2018-09-01T08:44:25.855Z,410.63
2018-09-01T08:45:25.906Z,410.63
2018-09-01T08:46:25.806Z,410.63
2018-09-01T08:47:25.735Z,410.63
2018-09-01T08:48:25.700Z,410.63
2018-09-01T08:49:25.738Z,410.63
2018-09-01T08:50:25.616Z,410.63
2018-09-01T08:51:25.693Z,410.63
2018-09-01T08:52:25.535Z,410.63
2018-09-01T08:53:25.498Z,410.63
2018-09-01T08:54:25.458Z,410.63
2018-09-01T08:55:25.461Z,410.63
2018-09-01T08:56:25.390Z,410.63
2018-09-01T08:57:25.338Z,416.25
2018-09-01T08:58:25.324Z,410.63
2018-09-01T08:59:25.264Z,410.63
2018-09-01T09:00:25.251Z,410.63
2018-09-01T09:01:25.177Z,410.63
2018-09-01T09:02:25.238Z,416.25
2018-09-01T09:03:25.164Z,421.88
2018-09-01T09:04:25.113Z,427.50
2018-09-01T09:05:25.072Z,427.50
2018-09-01T09:06:24.981Z,427.50
2018-09-01T09:07:24.975Z,421.88
2018-09-01T09:08:24.915Z,427.50
2018-09-01T09:09:24.872Z,427.50
2018-09-01T09:10:24.824Z,421.88
2018-09-01T09:11:24.846Z,410.63
2018-09-01T09:12:24.779Z,416.25
2018-09-01T09:13:24.708Z,416.25
2018-09-01T09:14:24.670Z,421.88
2018-09-01T09:15:24.629Z,433.13
2018-09-01T09:16:24.589Z,444.38
2018-09-01T09:17:24.580Z,326.25
2018-09-01T09:18:24.590Z,438.75
2018-09-01T09:19:24.473Z,348.75
2018-09-01T09:20:24.472Z,270.00
2018-09-01T09:21:24.394Z,281.25
2018-09-01T09:22:24.357Z,281.25
2018-09-01T09:23:24.317Z,281.25
2018-09-01T09:24:24.276Z,275.63
2018-09-01T09:25:24.269Z,275.63
2018-09-01T09:26:24.196Z,270.00
2018-09-01T09:27:24.161Z,298.13
2018-09-01T09:28:24.165Z,270.00
2018-09-01T09:29:24.080Z,264.38
2018-09-01T09:30:24.040Z,258.75
2018-09-01T09:31:23.998Z,309.38
2018-09-01T09:32:23.956Z,433.13
2018-09-01T09:33:23.948Z,427.50
2018-09-01T09:34:23.936Z,433.13
2018-09-01T09:35:23.842Z,371.25
2018-09-01T09:36:23.797Z,416.25
2018-09-01T09:37:23.789Z,399.38
2018-09-01T09:38:23.716Z,292.50
2018-09-01T09:39:23.678Z,444.38
2018-09-01T09:40:23.635Z,444.38
2018-09-01T09:41:23.596Z,298.13
2018-09-01T09:42:23.607Z,292.50
2018-09-01T09:43:23.515Z,461.25
2018-09-01T09:44:23.474Z,303.75
2018-09-01T09:45:23.432Z,298.13
2018-09-01T09:46:23.396Z,292.50
2018-09-01T09:47:23.403Z,281.25
2018-09-01T09:48:23.313Z,433.13
2018-09-01T09:49:23.273Z,438.75
2018-09-01T09:50:23.237Z,427.50
2018-09-01T09:51:23.205Z,438.75
2018-09-01T09:52:23.202Z,416.25
2018-09-01T09:53:23.118Z,416.25
2018-09-01T09:54:23.075Z,264.38
2018-09-01T09:55:23.033Z,258.75
2018-09-01T09:56:22.992Z,303.75
2018-09-01T09:57:22.980Z,281.25
2018-09-01T09:58:23.071Z,281.25
2018-09-01T09:59:22.912Z,337.50
2018-09-01T10:00:22.827Z,421.88
2018-09-01T10:01:22.788Z,382.50
2018-09-01T10:02:22.756Z,348.75
2018-09-01T10:03:22.707Z,438.75
2018-09-01T10:04:22.700Z,444.38
2018-09-01T10:05:22.634Z,450.00
2018-09-01T10:06:22.587Z,444.38
2018-09-01T10:07:22.546Z,281.25
2018-09-01T10:08:22.559Z,281.25
2018-09-01T10:09:22.465Z,438.75
2018-09-01T10:10:22.432Z,433.13
2018-09-01T10:11:22.386Z,433.13
2018-09-01T10:12:22.346Z,348.75
2018-09-01T10:13:22.352Z,247.50
2018-09-01T10:14:22.268Z,241.88
2018-09-01T10:15:22.227Z,247.50
2018-09-01T10:16:22.185Z,275.63
2018-09-01T10:17:22.153Z,331.88
2018-09-01T10:18:22.142Z,360.00
2018-09-01T10:19:22.068Z,258.75
2018-09-01T10:20:22.135Z,241.88
2018-09-01T10:21:22.020Z,236.25
2018-09-01T10:22:21.949Z,230.63
2018-09-01T10:23:21.908Z,225.00
2018-09-01T10:24:21.867Z,225.00
2018-09-01T10:25:21.860Z,247.50
2018-09-01T10:26:21.787Z,427.50
2018-09-01T10:27:21.750Z,427.50
2018-09-01T10:28:21.739Z,433.13
2018-09-01T10:29:21.675Z,320.63
2018-09-01T10:30:21.628Z,230.63
2018-09-01T10:31:21.629Z,219.38
2018-09-01T10:32:21.547Z,208.13
2018-09-01T10:33:21.507Z,208.13
2018-09-01T10:34:21.467Z,202.50
2018-09-01T10:35:21.428Z,191.25
2018-09-01T10:36:21.420Z,196.88
2018-09-01T10:37:21.346Z,202.50
2018-09-01T10:38:21.330Z,331.88
2018-09-01T10:39:21.267Z,326.25
2018-09-01T10:40:21.227Z,382.50
2018-09-01T10:41:21.218Z,365.63
2018-09-01T10:42:21.188Z,191.25
2018-09-01T10:43:21.109Z,174.38
2018-09-01T10:44:21.064Z,168.75
2018-09-01T10:45:21.027Z,163.13
2018-09-01T10:46:21.000Z,163.13
2018-09-01T10:47:20.976Z,163.13
2018-09-01T10:48:20.912Z,168.75
2018-09-01T10:49:20.862Z,185.63
2018-09-01T10:50:20.822Z,191.25
2018-09-01T10:51:20.783Z,196.88
2018-09-01T10:52:20.778Z,202.50
2018-09-01T10:53:20.704Z,208.13
2018-09-01T10:54:20.663Z,213.75
2018-09-01T10:55:20.626Z,219.38
2018-09-01T10:56:20.612Z,219.38
2018-09-01T10:57:20.541Z,219.38
2018-09-01T10:58:20.499Z,219.38
2018-09-01T10:59:20.573Z,208.13
2018-09-01T11:00:20.417Z,208.13
2018-09-01T11:01:20.377Z,202.50
2018-09-01T11:02:20.337Z,202.50
2018-09-01T11:03:20.298Z,202.50
2018-09-01T11:04:20.287Z,202.50
2018-09-01T11:05:20.223Z,202.50
2018-09-01T11:06:20.173Z,202.50
2018-09-01T11:07:20.131Z,196.88
2018-09-01T11:08:20.090Z,202.50
2018-09-01T11:09:20.086Z,247.50
2018-09-01T11:10:20.012Z,303.75
2018-09-01T11:11:19.967Z,399.38
2018-09-01T11:12:19.926Z,405.00
2018-09-01T11:13:19.887Z,410.63
2018-09-01T11:14:19.879Z,416.25
2018-09-01T11:15:19.802Z,421.88
2018-09-01T11:16:19.815Z,433.13
2018-09-01T11:17:19.720Z,438.75
2018-09-01T11:18:19.682Z,450.00
2018-09-01T11:19:19.645Z,292.50
2018-09-01T11:20:19.674Z,348.75
2018-09-01T11:21:19.591Z,264.38
2018-09-01T11:22:19.554Z,264.38
2018-09-01T11:23:19.483Z,253.13
2018-09-01T11:24:19.438Z,241.88
2018-09-01T11:25:19.399Z,236.25
2018-09-01T11:26:19.358Z,230.63
2018-09-01T11:27:19.376Z,230.63
2018-09-01T11:28:19.280Z,225.00
2018-09-01T11:29:19.241Z,219.38
2018-09-01T11:30:19.197Z,213.75
2018-09-01T11:31:19.158Z,213.75
2018-09-01T11:32:19.150Z,208.13
2018-09-01T11:33:19.079Z,208.13
2018-09-01T11:34:19.039Z,208.13
2018-09-01T11:35:18.996Z,213.75
2018-09-01T11:36:18.954Z,219.38
2018-09-01T11:37:18.951Z,225.00
2018-09-01T11:38:18.878Z,331.88
2018-09-01T11:39:18.834Z,343.13
2018-09-01T11:40:18.854Z,320.63
2018-09-01T11:41:18.752Z,405.00
2018-09-01T11:42:18.724Z,405.00
2018-09-01T11:43:18.874Z,399.38
2018-09-01T11:44:18.631Z,376.88
2018-09-01T11:45:18.593Z,202.50
2018-09-01T11:46:18.552Z,196.88
2018-09-01T11:47:18.512Z,191.25
2018-09-01T11:48:18.508Z,191.25
2018-09-01T11:49:18.430Z,191.25
2018-09-01T11:50:18.390Z,191.25
2018-09-01T11:51:18.349Z,191.25
2018-09-01T11:52:18.328Z,196.88
2018-09-01T11:53:18.418Z,202.50
2018-09-01T11:54:18.227Z,208.13
2018-09-01T11:55:18.191Z,213.75
2018-09-01T11:56:18.148Z,213.75
2018-09-01T11:57:18.109Z,213.75
2018-09-01T11:58:18.124Z,213.75
2018-09-01T11:59:18.032Z,292.50
2018-09-01T12:00:17.984Z,388.13
2018-09-01T12:01:17.942Z,382.50
2018-09-01T12:02:17.958Z,376.88
2018-09-01T12:03:17.862Z,371.25
2018-09-01T12:04:17.823Z,376.88
2018-09-01T12:05:17.783Z,393.75
2018-09-01T12:06:17.758Z,405.00
2018-09-01T12:07:17.737Z,376.88
2018-09-01T12:08:17.690Z,253.13
2018-09-01T12:09:17.663Z,241.88
2018-09-01T12:10:17.583Z,236.25
2018-09-01T12:11:17.541Z,225.00
2018-09-01T12:12:17.498Z,213.75
2018-09-01T12:13:17.495Z,202.50
2018-09-01T12:14:17.418Z,196.88
2018-09-01T12:15:17.423Z,196.88
2018-09-01T12:16:17.334Z,202.50
2018-09-01T12:17:17.378Z,258.75
2018-09-01T12:18:17.255Z,371.25
2018-09-01T12:19:17.215Z,292.50
2018-09-01T12:20:17.172Z,202.50
2018-09-01T12:21:17.132Z,270.00
2018-09-01T12:22:17.178Z,225.00
2018-09-01T12:23:17.054Z,208.13
2018-09-01T12:24:17.012Z,202.50
2018-09-01T12:25:16.972Z,202.50
2018-09-01T12:26:16.929Z,219.38
2018-09-01T12:27:16.925Z,196.88
2018-09-01T12:28:17.042Z,196.88
2018-09-01T12:29:16.806Z,196.88
2018-09-01T12:30:16.768Z,191.25
2018-09-01T12:31:16.727Z,185.63
2018-09-01T12:32:16.688Z,185.63
2018-09-01T12:33:16.675Z,185.63
2018-09-01T12:34:16.604Z,196.88
2018-09-01T12:35:16.601Z,185.63
2018-09-01T12:36:16.607Z,343.13
2018-09-01T12:37:16.528Z,202.50
2018-09-01T12:38:16.445Z,230.63
2018-09-01T12:39:16.404Z,331.88
2018-09-01T12:40:16.364Z,337.50
2018-09-01T12:41:16.369Z,337.50
2018-09-01T12:42:16.280Z,343.13
2018-09-01T12:43:16.237Z,343.13
2018-09-01T12:44:16.199Z,348.75
2018-09-01T12:45:16.160Z,348.75
2018-09-01T12:46:16.150Z,348.75
2018-09-01T12:47:16.074Z,348.75
2018-09-01T12:48:16.069Z,354.38